Time;durP1;ratioP1;P1;durP2;ratioP2;P2;SDS_P1;SDS_P2;PMS_P1;PMS_P2;Temp;Humidity;BMP_temperature;BMP_pressure;BME280_temperature;BME280_humidity;BME280_pressure;Samples;Min_cycle;Max_cycle;Signal;HPM_P1;HPM_P2
2022/01/23 00:02:18;;;;;;;;;;;;;;;-3.23;100.00;100561.78;5013342;28;20002;-64
2022/01/23 00:04:44;;;;;;;;;;;;;;;-3.31;100.00;100560.66;5013214;28;19921;-65
2022/01/23 00:07:12;;;;;;;;;;;;;;;-3.18;100.00;100556.16;5013548;28;20004;-65
2022/01/23 00:09:37;;;;;;;;;;;;;;;-2.65;100.00;100560.50;5013512;28;19949;-64
2022/01/23 00:12:07;;;;;;;;;;;;;;;-2.41;100.00;100561.34;5028612;28;20437;-65
2022/01/23 00:17:23;;;;;;;;;;;;;;;-2.24;100.00;100559.41;5013041;28;19920;-64
2022/01/23 00:19:48;;;;;;;;;;;;;;;-1.95;100.00;100563.66;5012033;28;19913;-64
2022/01/23 00:22:13;;;;;;;;;;;;;;;-1.90;100.00;100563.00;5013287;28;19914;-64
2022/01/23 00:32:50;;;;;;;;;;;;;;;-1.61;100.00;100565.53;5012065;28;20306;-65
2022/01/23 00:35:16;;;;;;;;;;;;;;;-1.57;100.00;100563.19;5012177;28;19920;-64
2022/01/23 00:37:41;;;;;;;;;;;;;;;-1.37;100.00;100562.13;5012561;28;19952;-65
2022/01/23 00:40:07;;;;;;;;;;;;;;;-1.15;100.00;100566.06;5012397;28;19913;-64
2022/01/23 00:42:33;;;;;;;;;;;;;;;-1.24;100.00;100563.31;5012795;28;19999;-64
2022/01/23 00:45:21;;;;;;;;;;;;;;;-1.18;100.00;100569.31;5012496;28;19925;-63
2022/01/23 00:47:44;;;;;;;;;;;;;;;-1.34;100.00;100557.22;5012591;28;19913;-64
2022/01/23 00:50:09;;;;;;;;;;;;;;;-1.36;100.00;100558.81;5012438;28;19917;-64
2022/01/23 00:52:34;;;;;;;;;;;;;;;-1.36;100.00;100563.81;5012443;28;19917;-65
2022/01/23 00:55:00;;;;;;;;;;;;;;;-1.54;100.00;100558.28;5012946;28;19917;-64
2022/01/23 00:57:26;;;;;;;;;;;;;;;-1.49;100.00;100561.75;5012500;28;19914;-64
2022/01/23 00:59:51;;;;;;;;;;;;;;;-1.56;100.00;100559.03;5012883;28;19914;-64
2022/01/23 01:02:16;;;;;;;;;;;;;;;-1.53;100.00;100564.13;5104497;22;19933;-65
2022/01/23 01:04:41;;;;;;;;;;;;;;;-1.53;100.00;100571.59;5012394;28;19917;-66
2022/01/23 01:07:07;;;;;;;;;;;;;;;-1.41;100.00;100571.94;4659127;28;10000323;-67
2022/01/23 01:09:32;;;;;;;;;;;;;;;-1.37;100.00;100569.59;5012359;28;19980;-67
2022/01/23 01:12:06;;;;;;;;;;;;;;;-1.37;100.00;100571.25;5012591;28;19913;-68
2022/01/23 01:17:24;;;;;;;;;;;;;;;-1.59;100.00;100569.78;5012090;28;19920;-66
2022/01/23 01:31:05;;;;;;;;;;;;;;;-1.68;100.00;100564.50;4996159;28;19920;-65
2022/01/23 01:33:51;;;;;;;;;;;;;;;-1.63;100.00;100560.50;5012021;28;20342;-65
2022/01/23 01:36:29;;;;;;;;;;;;;;;-1.67;100.00;100566.19;5012161;28;19913;-65
2022/01/23 01:38:55;;;;;;;;;;;;;;;-1.66;100.00;100564.56;5011813;28;20000;-64
2022/01/23 01:41:21;;;;;;;;;;;;;;;-1.64;100.00;100576.25;5011889;28;20005;-65
2022/01/23 01:43:47;;;;;;;;;;;;;;;-1.60;100.00;100577.19;5011728;28;19963;-65
2022/01/23 01:46:13;;;;;;;;;;;;;;;-1.63;100.00;100580.44;5011473;28;19951;-64
2022/01/23 01:48:39;;;;;;;;;;;;;;;-1.83;100.00;100589.81;5011940;28;20669;-65
2022/01/23 01:51:08;;;;;;;;;;;;;;;-1.83;100.00;100587.31;5011591;28;20368;-64
2022/01/23 01:53:34;;;;;;;;;;;;;;;-1.82;100.00;100588.13;5011599;28;20314;-64
2022/01/23 01:55:59;;;;;;;;;;;;;;;-1.74;100.00;100588.41;5011631;28;19920;-65
2022/01/23 02:02:39;;;;;;;;;;;;;;;-1.79;100.00;100586.59;5011299;28;19913;-66
2022/01/23 02:09:15;;;;;;;;;;;;;;;-1.88;100.00;100596.28;5011383;28;19920;-64
2022/01/23 02:17:28;;;;;;;;;;;;;;;-1.80;100.00;100594.00;4991827;28;19920;-63
2022/01/23 02:57:22;;;;;;;;;;;;;;;-2.11;100.00;100621.22;4995313;28;19972;-64
2022/01/23 02:59:49;;;;;;;;;;;;;;;-2.00;100.00;100637.38;4995219;28;19914;-65
2022/01/23 03:02:28;;;;;;;;;;;;;;;-1.98;100.00;100648.25;4995385;28;19929;-64
2022/01/23 03:04:59;;;;;;;;;;;;;;;-1.94;100.00;100657.50;4995215;28;20490;-65
2022/01/23 03:10:17;;;;;;;;;;;;;;;-1.97;100.00;100655.75;4995068;28;19983;-65
2022/01/23 03:29:01;;;;;;;;;;;;;;;-2.22;100.00;100663.19;4994380;28;19913;-64
2022/01/23 03:31:25;;;;;;;;;;;;;;;-2.21;100.00;100667.38;4994832;28;19953;-65
2022/01/23 03:33:51;;;;;;;;;;;;;;;-2.23;100.00;100670.63;4994399;28;20313;-65
2022/01/23 03:36:16;;;;;;;;;;;;;;;-2.38;100.00;100661.00;5009645;28;20275;-65
2022/01/23 03:38:42;;;;;;;;;;;;;;;-2.40;100.00;100665.06;4994403;28;19913;-65
2022/01/23 03:41:08;;;;;;;;;;;;;;;-2.35;100.00;100661.09;4994103;28;19921;-65
2022/01/23 03:43:37;;;;;;;;;;;;;;;-2.34;100.00;100667.78;4994461;28;19914;-64
2022/01/23 03:51:13;;;;;;;;;;;;;;;-2.25;100.00;100677.19;5013808;28;19920;-65
2022/01/23 03:53:38;;;;;;;;;;;;;;;-2.32;100.00;100677.78;5013395;28;19925;-65
2022/01/23 03:56:04;;;;;;;;;;;;;;;-2.24;100.00;100673.91;5013955;28;19921;-64
2022/01/23 03:58:29;;;;;;;;;;;;;;;-2.29;100.00;100676.22;5013962;28;19913;-65
2022/01/23 04:00:55;;;;;;;;;;;;;;;-2.35;100.00;100681.00;5013567;28;19913;-65
2022/01/23 04:03:20;;;;;;;;;;;;;;;-2.48;100.00;100683.88;5012126;28;19939;-65
2022/01/23 04:05:46;;;;;;;;;;;;;;;-2.40;100.00;100680.00;5012830;28;19944;-64
2022/01/23 04:08:11;;;;;;;;;;;;;;;-2.37;100.00;100692.53;5012552;28;20004;-64
2022/01/23 04:10:38;;;;;;;;;;;;;;;-2.40;100.00;100692.44;5013535;28;19917;-64
2022/01/23 04:16:13;;;;;;;;;;;;;;;-2.28;100.00;100692.88;5021279;28;19972;-64
2022/01/23 04:45:28;;;;;;;;;;;;;;;-2.80;100.00;100717.53;5012787;28;20345;-64
2022/01/23 05:01:46;;;;;;;;;;;;;;;-2.17;100.00;100731.44;5012681;28;19923;-64
2022/01/23 05:04:18;;;;;;;;;;;;;;;-2.23;100.00;100728.72;5011877;28;19976;-64
2022/01/23 05:06:57;;;;;;;;;;;;;;;-2.34;100.00;100722.53;5012263;28;19917;-64
2022/01/23 05:09:22;;;;;;;;;;;;;;;-2.23;100.00;100725.38;5012411;28;19956;-65
2022/01/23 05:11:49;;;;;;;;;;;;;;;-2.17;100.00;100723.97;5012137;28;19964;-64
2022/01/23 05:14:17;;;;;;;;;;;;;;;-2.18;100.00;100731.38;5012325;28;19913;-65
2022/01/23 05:16:42;;;;;;;;;;;;;;;-2.23;100.00;100738.69;5011972;28;20375;-64
2022/01/23 05:19:08;;;;;;;;;;;;;;;-2.23;100.00;100738.69;5011272;28;19920;-64
2022/01/23 05:24:16;;;;;;;;;;;;;;;-2.30;100.00;100739.28;5011916;28;20441;-64
2022/01/23 05:26:44;;;;;;;;;;;;;;;-2.11;100.00;100740.75;5011987;28;20004;-64
2022/01/23 05:29:11;;;;;;;;;;;;;;;-2.37;100.00;100747.28;5011987;28;19913;-64
2022/01/23 05:31:36;;;;;;;;;;;;;;;-2.55;100.00;100758.22;5011440;28;19920;-64
2022/01/23 05:34:01;;;;;;;;;;;;;;;-2.37;100.00;100756.41;5011999;28;19913;-64
2022/01/23 05:36:27;;;;;;;;;;;;;;;-2.40;100.00;100753.81;5011993;28;20454;-64
2022/01/23 05:38:52;;;;;;;;;;;;;;;-2.37;100.00;100756.41;5026936;28;19955;-65
2022/01/23 05:41:17;;;;;;;;;;;;;;;-2.71;100.00;100760.16;5011710;28;20056;-64
2022/01/23 05:43:43;;;;;;;;;;;;;;;-2.78;100.00;100763.22;5011888;28;19917;-64
2022/01/23 05:46:08;;;;;;;;;;;;;;;-2.74;100.00;100776.59;5011271;28;19913;-64
2022/01/23 05:48:33;;;;;;;;;;;;;;;-2.47;100.00;100762.69;5010446;28;19913;-64
2022/01/23 05:50:58;;;;;;;;;;;;;;;-2.51;100.00;100767.50;5012034;28;20011;-66
2022/01/23 05:53:24;;;;;;;;;;;;;;;-2.58;100.00;100768.06;5011650;28;20036;-64
2022/01/23 05:55:50;;;;;;;;;;;;;;;-2.42;100.00;100756.25;5011559;28;20358;-63
2022/01/23 05:58:16;;;;;;;;;;;;;;;-2.29;100.00;100760.88;5011516;28;19921;-64
2022/01/23 06:00:41;;;;;;;;;;;;;;;-2.33;100.00;100769.00;5011138;28;19941;-64
2022/01/23 06:03:06;;;;;;;;;;;;;;;-2.37;100.00;100764.72;5011305;28;19961;-64
2022/01/23 06:05:31;;;;;;;;;;;;;;;-2.18;100.00;100768.72;5026620;28;20406;-64
2022/01/23 06:07:57;;;;;;;;;;;;;;;-2.06;100.00;100772.47;5026353;28;19913;-64
2022/01/23 06:10:25;;;;;;;;;;;;;;;-1.44;100.00;100781.22;5011510;28;20012;-64
2022/01/23 06:12:51;;;;;;;;;;;;;;;-1.47;100.00;100779.50;5011197;28;19921;-64
2022/01/23 06:15:16;;;;;;;;;;;;;;;-1.14;100.00;100788.06;5010833;28;19913;-64
2022/01/23 06:17:42;;;;;;;;;;;;;;;-1.01;100.00;100782.66;5011473;28;19917;-63
2022/01/23 06:20:09;;;;;;;;;;;;;;;-0.94;100.00;100786.19;5011267;28;19960;-64
2022/01/23 06:22:35;;;;;;;;;;;;;;;-0.61;99.54;100793.81;5011029;28;19917;-63
2022/01/23 06:25:00;;;;;;;;;;;;;;;-0.27;96.95;100792.38;5026262;28;19936;-64
2022/01/23 06:27:29;;;;;;;;;;;;;;;0.18;94.93;100805.28;5011223;28;19913;-63
2022/01/23 06:29:54;;;;;;;;;;;;;;;-0.31;91.61;100810.56;5008896;28;19917;-64
2022/01/23 06:32:19;;;;;;;;;;;;;;;0.14;90.05;100827.66;5011657;28;20304;-65
2022/01/23 06:34:46;;;;;;;;;;;;;;;1.20;82.31;100824.53;5011394;28;20308;-65
2022/01/23 06:37:11;;;;;;;;;;;;;;;1.09;81.76;100825.94;5011253;28;19917;-65
2022/01/23 06:39:37;;;;;;;;;;;;;;;2.51;74.92;100816.41;5011057;28;19918;-65
2022/01/23 06:42:02;;;;;;;;;;;;;;;1.37;75.48;100829.91;5011018;28;19971;-66
2022/01/23 06:44:27;;;;;;;;;;;;;;;1.05;74.23;100821.66;5010568;28;20295;-65
2022/01/23 06:46:53;;;;;;;;;;;;;;;3.25;72.46;100815.94;5010895;28;19956;-68
2022/01/23 06:49:18;;;;;;;;;;;;;;;3.62;70.33;100819.00;5011142;28;19949;-65
2022/01/23 06:51:43;;;;;;;;;;;;;;;3.12;64.17;100819.09;5010782;28;19917;-66
2022/01/23 06:54:09;;;;;;;;;;;;;;;3.53;66.42;100813.84;5011165;28;19951;-65
2022/01/23 06:56:35;;;;;;;;;;;;;;;3.20;66.38;100809.16;5010931;28;20410;-66
2022/01/23 06:59:00;;;;;;;;;;;;;;;2.92;68.69;100802.03;5010836;28;19913;-65
2022/01/23 07:01:25;;;;;;;;;;;;;;;2.85;66.65;100816.16;5010656;28;19917;-65
2022/01/23 07:03:51;;;;;;;;;;;;;;;1.97;74.05;100801.16;5010898;28;20004;-65
2022/01/23 07:06:16;;;;;;;;;;;;;;;0.84;82.93;100813.66;5010647;28;19913;-65
2022/01/23 07:08:41;;;;;;;;;;;;;;;0.26;91.25;100813.00;5010843;28;19997;-65
2022/01/23 07:11:07;;;;;;;;;;;;;;;0.98;92.08;100802.31;5010686;28;19913;-65
2022/01/23 07:13:32;;;;;;;;;;;;;;;0.92;89.43;100811.34;5010811;28;20272;-64
2022/01/23 07:15:57;;;;;;;;;;;;;;;0.76;94.35;100807.63;5010440;28;19972;-66
2022/01/23 07:18:22;;;;;;;;;;;;;;;-0.18;93.90;100810.09;5010613;28;20367;-65
2022/01/23 07:20:48;;;;;;;;;;;;;;;0.38;94.30;100805.78;5010605;28;20396;-67
2022/01/23 07:23:13;;;;;;;;;;;;;;;0.15;95.02;100811.84;5009412;28;19913;-67
2022/01/23 07:25:40;;;;;;;;;;;;;;;-0.13;95.30;100811.09;5010523;28;19918;-65
2022/01/23 07:28:11;;;;;;;;;;;;;;;-0.20;100.00;100804.22;5009054;28;19913;-65
2022/01/23 07:30:42;;;;;;;;;;;;;;;-0.56;100.00;100814.81;5003411;28;19929;-66
2022/01/23 07:33:07;;;;;;;;;;;;;;;-0.61;100.00;100814.66;5001447;28;20396;-66
2022/01/23 07:35:33;;;;;;;;;;;;;;;-0.81;100.00;100807.38;4999625;28;19917;-66
2022/01/23 07:37:58;;;;;;;;;;;;;;;-0.20;100.00;100801.72;5014940;28;19917;-64
2022/01/23 07:40:24;;;;;;;;;;;;;;;-0.08;100.00;100806.25;5022725;28;20365;-63
2022/01/23 07:42:49;;;;;;;;;;;;;;;-0.11;100.00;100807.00;5003263;28;19913;-64
2022/01/23 07:45:14;;;;;;;;;;;;;;;-0.43;100.00;100819.34;5004562;28;19925;-64
2022/01/23 07:47:40;;;;;;;;;;;;;;;-0.18;100.00;100821.78;5002224;28;19917;-63
2022/01/23 07:50:09;;;;;;;;;;;;;;;-0.11;100.00;100819.47;5003922;28;20388;-64
2022/01/23 07:52:35;;;;;;;;;;;;;;;0.02;100.00;100810.66;5003533;28;19918;-66
2022/01/23 07:55:06;;;;;;;;;;;;;;;0.15;100.00;100816.84;5001239;28;19914;-66
2022/01/23 07:57:31;;;;;;;;;;;;;;;0.21;100.00;100817.00;5003596;28;20384;-65
2022/01/23 07:59:57;;;;;;;;;;;;;;;0.58;100.00;100814.66;5003919;28;19922;-65
2022/01/23 08:02:23;;;;;;;;;;;;;;;0.44;98.59;100805.94;5003668;28;20075;-64
2022/01/23 08:04:48;;;;;;;;;;;;;;;0.73;100.00;100805.06;5001121;28;19917;-64
2022/01/23 08:07:30;;;;;;;;;;;;;;;0.44;98.54;100805.94;5003962;28;20367;-65
2022/01/23 08:09:56;;;;;;;;;;;;;;;0.26;96.04;100806.31;5003325;28;19926;-64
2022/01/23 08:12:22;;;;;;;;;;;;;;;0.46;94.65;100805.19;5003123;28;20012;-63
2022/01/23 08:14:47;;;;;;;;;;;;;;;0.69;92.37;100816.63;5001530;28;20004;-62
2022/01/23 08:17:13;;;;;;;;;;;;;;;0.29;91.75;100816.41;5003110;28;19924;-62
2022/01/23 08:19:38;;;;;;;;;;;;;;;0.46;90.70;100815.19;5003050;28;19917;-63
2022/01/23 08:22:04;;;;;;;;;;;;;;;0.57;89.59;100807.97;5003138;28;19923;-63
2022/01/23 08:24:29;;;;;;;;;;;;;;;0.65;89.08;100809.84;5001814;28;19988;-64
2022/01/23 08:26:54;;;;;;;;;;;;;;;0.94;86.52;100805.56;5001757;28;19921;-66
2022/01/23 08:29:19;;;;;;;;;;;;;;;0.98;85.23;100808.97;5003301;28;20357;-64
2022/01/23 08:31:45;;;;;;;;;;;;;;;0.73;84.78;100808.38;5002892;28;20000;-63
2022/01/23 08:34:11;;;;;;;;;;;;;;;0.33;84.97;100818.19;5002926;28;20395;-65
2022/01/23 08:36:36;;;;;;;;;;;;;;;0.63;85.26;100810.63;5003478;28;20007;-63
2022/01/23 08:39:02;;;;;;;;;;;;;;;0.59;84.84;100816.38;5001967;28;19914;-63
2022/01/23 08:44:11;;;;;;;;;;;;;;;0.35;85.97;100835.72;5003139;28;20008;-65
2022/01/23 08:46:37;;;;;;;;;;;;;;;0.30;86.34;100837.28;5002000;28;20005;-62
2022/01/23 08:49:02;;;;;;;;;;;;;;;0.35;85.74;100831.59;5000910;28;20359;-64
2022/01/23 08:51:27;;;;;;;;;;;;;;;0.33;85.73;100837.34;4994973;28;19917;-65
2022/01/23 08:53:53;;;;;;;;;;;;;;;0.33;89.74;100834.84;4992373;28;19953;-64
2022/01/23 08:56:18;;;;;;;;;;;;;;;0.40;88.16;100832.53;4991621;28;20303;-64
2022/01/23 08:58:43;;;;;;;;;;;;;;;0.77;87.68;100824.34;4992838;28;20004;-64
2022/01/23 09:01:08;;;;;;;;;;;;;;;0.72;86.24;100823.34;4993054;28;19913;-62
2022/01/23 09:03:34;;;;;;;;;;;;;;;0.38;86.53;100825.78;4992763;28;20379;-63
2022/01/23 09:05:59;;;;;;;;;;;;;;;0.57;85.06;100825.47;4992678;28;19921;-63
2022/01/23 09:08:24;;;;;;;;;;;;;;;0.56;86.05;100817.13;5006726;28;20414;-61
2022/01/23 09:10:55;;;;;;;;;;;;;;;0.63;86.76;100815.63;5012433;28;19910;-63
2022/01/23 09:15:58;;;;;;;;;;;;;;;0.66;86.66;100804.03;5011971;28;19917;-64
2022/01/23 09:18:23;;;;;;;;;;;;;;;1.10;86.39;100800.09;5011942;28;20307;-66
2022/01/23 09:20:49;;;;;;;;;;;;;;;1.22;84.86;100804.53;5011853;28;20292;-64
2022/01/23 09:23:14;;;;;;;;;;;;;;;0.59;84.10;100801.34;5012241;28;19924;-64
2022/01/23 09:25:39;;;;;;;;;;;;;;;0.61;81.99;100799.75;5010375;28;19964;-64
2022/01/23 09:28:07;;;;;;;;;;;;;;;1.32;81.41;100786.41;5011918;28;19917;-63
2022/01/23 09:30:36;;;;;;;;;;;;;;;1.02;80.35;100781.56;5010405;28;20307;-63
2022/01/23 09:33:02;;;;;;;;;;;;;;;1.51;79.45;100780.97;5010296;28;19914;-63
2022/01/23 09:35:27;;;;;;;;;;;;;;;1.63;79.18;100777.09;5011472;28;20387;-62
2022/01/23 09:37:52;;;;;;;;;;;;;;;1.45;78.39;100781.69;5012077;28;19917;-63
2022/01/23 09:40:18;;;;;;;;;;;;;;;1.47;79.80;100771.72;5011524;28;19913;-63
2022/01/23 09:42:44;;;;;;;;;;;;;;;1.53;77.34;100762.66;5011570;28;20349;-62
2022/01/23 09:45:11;;;;;;;;;;;;;;;1.18;78.18;100765.22;5011452;28;19913;-63
2022/01/23 09:47:37;;;;;;;;;;;;;;;2.13;88.15;100755.50;5011693;28;20362;-63
2022/01/23 09:50:03;;;;;;;;;;;;;;;1.45;79.79;100753.28;5011422;28;19914;-63
2022/01/23 09:52:32;;;;;;;;;;;;;;;1.48;77.62;100749.22;5011378;28;19980;-64
2022/01/23 09:55:01;;;;;;;;;;;;;;;1.47;78.06;100760.03;5011196;28;20370;-62
2022/01/23 09:57:30;;;;;;;;;;;;;;;1.62;76.73;100760.34;5011329;28;19913;-65
2022/01/23 09:59:57;;;;;;;;;;;;;;;1.35;76.44;100753.91;5011286;28;19971;-65
2022/01/23 10:02:25;;;;;;;;;;;;;;;1.22;76.44;100760.34;5011385;28;19917;-64
2022/01/23 10:04:51;;;;;;;;;;;;;;;1.51;76.33;100755.94;5011261;28;19917;-64
2022/01/23 10:07:17;;;;;;;;;;;;;;;1.11;75.63;100749.22;5011185;28;19919;-65
2022/01/23 10:09:43;;;;;;;;;;;;;;;1.49;75.85;100743.38;5011214;28;20356;-65
2022/01/23 10:12:09;;;;;;;;;;;;;;;1.61;75.27;100746.13;5011141;28;20399;-65
2022/01/23 10:14:35;;;;;;;;;;;;;;;1.49;74.89;100733.38;5010811;28;19917;-64
2022/01/23 10:17:01;;;;;;;;;;;;;;;1.59;74.17;100740.25;5011039;28;20406;-65
2022/01/23 10:19:26;;;;;;;;;;;;;;;1.49;74.39;100742.53;5011355;28;19917;-64
2022/01/23 10:21:52;;;;;;;;;;;;;;;1.38;72.77;100734.81;5010815;28;19924;-63
2022/01/23 10:24:17;;;;;;;;;;;;;;;1.36;72.80;100728.06;5010779;28;20016;-63
2022/01/23 10:26:47;;;;;;;;;;;;;;;1.27;72.21;100737.91;5011192;28;19913;-65
2022/01/23 10:29:20;;;;;;;;;;;;;;;1.12;71.07;100732.56;5011075;28;19949;-64
2022/01/23 10:32:04;;;;;;;;;;;;;;;1.13;71.46;100732.56;5010882;28;20015;-64
2022/01/23 10:34:43;;;;;;;;;;;;;;;1.33;71.91;100730.50;5010856;28;20012;-64
2022/01/23 10:37:09;;;;;;;;;;;;;;;1.52;71.04;100732.59;5010843;28;19932;-66
2022/01/23 10:39:41;;;;;;;;;;;;;;;1.38;71.59;100731.44;5011327;28;19932;-68
2022/01/23 10:47:59;;;;;;;;;;;;;;;1.38;70.75;100722.28;5010871;28;20306;-68
2022/01/23 10:50:24;;;;;;;;;;;;;;;1.31;72.89;100717.09;5010775;28;20379;-67
2022/01/23 10:52:51;;;;;;;;;;;;;;;1.52;72.57;100723.41;5010765;28;19909;-67
2022/01/23 10:55:24;;;;;;;;;;;;;;;1.19;73.79;100726.88;5010704;28;19971;-67
2022/01/23 10:57:51;;;;;;;;;;;;;;;1.21;73.79;100723.56;5010714;28;20008;-68
2022/01/23 11:00:25;;;;;;;;;;;;;;;1.28;74.49;100722.91;5010708;28;20345;-66
2022/01/23 11:02:51;;;;;;;;;;;;;;;1.25;74.77;100707.00;5009196;28;20371;-68
2022/01/23 11:05:18;;;;;;;;;;;;;;;1.42;74.74;100711.53;5010499;28;19967;-69
2022/01/23 11:07:44;;;;;;;;;;;;;;;1.09;74.81;100705.78;5010709;28;19951;-67
2022/01/23 11:10:15;;;;;;;;;;;;;;;1.15;75.62;100695.09;5010733;28;19985;-68
2022/01/23 11:18:02;;;;;;;;;;;;;;;1.17;75.24;100699.28;5014737;28;19921;-67
2022/01/23 11:20:41;;;;;;;;;;;;;;;1.29;75.14;100699.53;5014576;28;20375;-68
2022/01/23 11:23:09;;;;;;;;;;;;;;;1.36;74.24;100696.38;5014744;28;20016;-67
2022/01/23 11:25:34;;;;;;;;;;;;;;;1.09;74.76;100687.44;5014197;28;20291;-67
2022/01/23 11:28:03;;;;;;;;;;;;;;;1.06;75.16;100688.22;5014533;28;19913;-66
2022/01/23 11:30:36;;;;;;;;;;;;;;;1.03;74.31;100693.13;5014838;28;20384;-69
2022/01/23 11:33:03;;;;;;;;;;;;;;;1.13;73.54;100692.53;5014380;28;19920;-67
2022/01/23 11:35:28;;;;;;;;;;;;;;;1.33;73.30;100691.28;5014337;28;19966;-67
2022/01/23 11:37:54;;;;;;;;;;;;;;;1.47;71.84;100689.91;5014076;28;20033;-67
2022/01/23 11:53:58;;;;;;;;;;;;;;;1.28;69.97;100687.84;5014142;28;19913;-67
2022/01/23 11:56:33;;;;;;;;;;;;;;;1.03;69.83;100682.31;5013736;28;19913;-63
2022/01/23 11:59:29;;;;;;;;;;;;;;;1.43;70.13;100683.16;5013732;28;20363;-66
2022/01/23 12:02:14;;;;;;;;;;;;;;;1.24;70.52;100683.59;5013699;28;19925;-67
2022/01/23 12:04:41;;;;;;;;;;;;;;;1.29;70.87;100676.19;5013496;28;20458;-67
2022/01/23 12:07:13;;;;;;;;;;;;;;;1.12;72.31;100674.97;5012183;28;19974;-65
2022/01/23 12:09:59;;;;;;;;;;;;;;;1.38;73.55;100676.34;5013948;28;20482;-69
2022/01/23 12:18:12;;;;;;;;;;;;;;;1.22;74.16;100676.84;5013228;28;19972;-65
2022/01/23 12:20:37;;;;;;;;;;;;;;;1.59;84.43;100680.13;5013773;28;19914;-69
2022/01/23 12:23:03;;;;;;;;;;;;;;;1.43;75.38;100682.28;5013188;28;19941;-69
2022/01/23 12:25:30;;;;;;;;;;;;;;;1.07;73.98;100677.38;5012577;28;19914;-69
2022/01/23 12:28:17;;;;;;;;;;;;;;;1.16;73.79;100684.25;5010509;28;19917;-68
2022/01/23 12:30:44;;;;;;;;;;;;;;;1.04;73.78;100684.84;5011985;28;19917;-68
2022/01/23 12:33:11;;;;;;;;;;;;;;;1.17;73.45;100686.78;5012323;28;19913;-69
2022/01/23 12:35:38;;;;;;;;;;;;;;;1.20;74.00;100686.84;5012480;28;19913;-68
2022/01/23 12:38:05;;;;;;;;;;;;;;;1.18;74.24;100677.59;5011708;28;19913;-68
2022/01/23 12:40:32;;;;;;;;;;;;;;;1.35;75.28;100687.16;5027452;28;20433;-69
2022/01/23 12:43:17;;;;;;;;;;;;;;;1.34;74.63;100682.97;5012194;28;19960;-68
2022/01/23 12:45:49;;;;;;;;;;;;;;;1.36;76.12;100693.88;5012075;28;20399;-68
2022/01/23 12:48:26;;;;;;;;;;;;;;;1.44;75.87;100692.38;5012931;28;19913;-69
2022/01/23 12:51:00;;;;;;;;;;;;;;;1.11;77.74;100704.16;5012920;28;19909;-69
2022/01/23 12:53:57;;;;;;;;;;;;;;;1.01;78.35;100702.28;5012638;28;19918;-68
2022/01/23 12:56:32;;;;;;;;;;;;;;;1.21;79.17;100701.03;5012684;28;20264;-68
2022/01/23 12:59:05;;;;;;;;;;;;;;;0.98;80.10;100704.72;5012663;28;19917;-68
2022/01/23 13:01:30;;;;;;;;;;;;;;;0.89;78.88;100697.03;5012710;28;19969;-68
2022/01/23 13:04:00;;;;;;;;;;;;;;;0.94;77.91;100709.63;5012268;28;19980;-68
2022/01/23 13:06:29;;;;;;;;;;;;;;;0.89;79.07;100702.84;5012564;28;19917;-68
2022/01/23 13:09:15;;;;;;;;;;;;;;;0.94;80.26;100702.09;5012934;28;20397;-70
2022/01/23 13:11:54;;;;;;;;;;;;;;;0.76;82.87;100705.91;5012034;28;20346;-69
2022/01/23 13:14:26;;;;;;;;;;;;;;;0.85;85.20;100710.28;5012603;28;20439;-71
2022/01/23 13:17:33;;;;;;;;;;;;;;;0.72;87.98;100693.28;5012992;28;20355;-68
2022/01/23 13:30:22;;;;;;;;;;;;;;;0.75;88.40;100700.88;5012398;28;19917;-69
2022/01/23 13:32:50;;;;;;;;;;;;;;;0.76;89.96;100695.03;5012735;28;19913;-69
2022/01/23 13:35:17;;;;;;;;;;;;;;;0.57;94.34;100695.44;5011908;28;20376;-69
2022/01/23 13:37:45;;;;;;;;;;;;;;;0.58;96.26;100697.09;5011107;28;20373;-69
2022/01/23 13:40:14;;;;;;;;;;;;;;;0.84;98.93;100691.06;5010520;28;19909;-70
2022/01/23 13:53:35;;;;;;;;;;;;;;;0.52;98.59;100695.31;5012000;28;20003;-70
2022/01/23 13:58:52;;;;;;;;;;;;;;;0.79;97.94;100702.63;5011509;28;19936;-65
2022/01/23 14:03:53;;;;;;;;;;;;;;;0.72;94.98;100693.28;5011342;28;19917;-71
2022/01/23 14:06:18;;;;;;;;;;;;;;;0.59;92.08;100706.31;4661565;28;10000503;-64
2022/01/23 14:09:20;;;;;;;;;;;;;;;0.60;90.01;100708.00;5005279;28;19921;-66
2022/01/23 14:11:45;;;;;;;;;;;;;;;0.47;91.52;100714.38;4965427;28;19926;-67
2022/01/23 14:14:13;;;;;;;;;;;;;;;0.54;93.04;100715.34;4998884;28;19917;-66
2022/01/23 14:16:39;;;;;;;;;;;;;;;0.63;93.85;100723.09;5007536;28;20245;-66
2022/01/23 14:19:23;;;;;;;;;;;;;;;0.54;96.99;100717.84;5006800;28;19921;-66
2022/01/23 14:21:53;;;;;;;;;;;;;;;0.51;99.99;100730.28;5007474;28;19914;-64
2022/01/23 14:24:23;;;;;;;;;;;;;;;0.19;100.00;100724.50;5007185;28;20406;-65
2022/01/23 14:27:08;;;;;;;;;;;;;;;0.07;100.00;100719.19;5007601;28;19924;-65
2022/01/23 14:29:53;;;;;;;;;;;;;;;0.24;100.00;100722.13;5006413;28;19917;-65
2022/01/23 14:33:06;;;;;;;;;;;;;;;0.14;100.00;100726.00;5006835;28;19913;-65
2022/01/23 14:35:12;;;;;;;;;;;;;;;0.16;100.00;100724.41;5007056;28;20007;-65
2022/01/23 14:37:39;;;;;;;;;;;;;;;0.00;100.00;100724.84;5006061;28;19961;-66
2022/01/23 14:40:13;;;;;;;;;;;;;;;0.09;100.00;100736.72;5007650;28;20103;-65
2022/01/23 14:42:39;;;;;;;;;;;;;;;0.02;100.00;100730.69;5005459;28;20541;-65
2022/01/23 14:45:07;;;;;;;;;;;;;;;-0.06;100.00;100738.00;5007399;28;20438;-64
2022/01/23 14:47:34;;;;;;;;;;;;;;;-0.12;100.00;100739.50;5007283;28;19917;-63
2022/01/23 14:50:00;;;;;;;;;;;;;;;-0.20;100.00;100744.25;5007523;28;19928;-62
2022/01/23 14:52:26;;;;;;;;;;;;;;;-0.12;100.00;100740.31;5010653;28;19917;-63
2022/01/23 14:54:51;;;;;;;;;;;;;;;-0.14;100.00;100751.09;5011197;28;20307;-62
2022/01/23 14:57:17;;;;;;;;;;;;;;;-0.32;100.00;100751.41;5011244;28;19913;-61
2022/01/23 14:59:42;;;;;;;;;;;;;;;-0.13;100.00;100750.28;5011390;28;19913;-63
2022/01/23 15:02:08;;;;;;;;;;;;;;;-0.13;100.00;100747.78;5009996;28;19925;-68
2022/01/23 15:04:40;;;;;;;;;;;;;;;-0.18;100.00;100755.16;5009121;28;19921;-64
2022/01/23 15:07:13;;;;;;;;;;;;;;;-0.14;100.00;100756.94;5005303;28;20032;-66
2022/01/23 15:09:38;;;;;;;;;;;;;;;-0.14;100.00;100756.94;5026047;28;19917;-66
2022/01/23 15:12:03;;;;;;;;;;;;;;;-0.20;100.00;100758.44;5010816;28;19924;-64
2022/01/23 15:14:29;;;;;;;;;;;;;;;-0.24;100.00;100759.97;5009767;28;19917;-63
2022/01/23 15:16:54;;;;;;;;;;;;;;;-0.30;100.00;100761.47;5011167;28;20399;-63
2022/01/23 15:19:19;;;;;;;;;;;;;;;-0.25;100.00;100760.78;5025341;28;20018;-63
2022/01/23 15:21:45;;;;;;;;;;;;;;;-0.25;100.00;100772.44;5011215;28;19913;-65
2022/01/23 15:24:10;;;;;;;;;;;;;;;-0.25;100.00;100775.78;5011491;28;20426;-66
2022/01/23 15:26:36;;;;;;;;;;;;;;;-0.40;100.00;100770.38;5025990;28;19917;-65
2022/01/23 15:29:02;;;;;;;;;;;;;;;-0.77;100.00;100792.53;5010992;28;20411;-63
2022/01/23 15:31:28;;;;;;;;;;;;;;;-0.92;100.00;100789.56;5010667;28;20387;-64
2022/01/23 15:33:53;;;;;;;;;;;;;;;-0.89;100.00;100779.66;5010408;28;19917;-64
2022/01/23 15:36:19;;;;;;;;;;;;;;;-0.98;100.00;100781.91;5009459;28;20020;-64
2022/01/23 15:38:46;;;;;;;;;;;;;;;-0.99;100.00;100785.22;5010831;28;19913;-65
2022/01/23 15:41:12;;;;;;;;;;;;;;;-0.95;100.00;100785.31;5010252;28;19921;-64
2022/01/23 15:43:37;;;;;;;;;;;;;;;-0.72;100.00;100788.53;5011003;28;20355;-65
2022/01/23 15:46:03;;;;;;;;;;;;;;;-0.67;100.00;100791.19;5010242;28;19976;-66
2022/01/23 15:48:30;;;;;;;;;;;;;;;-0.59;100.00;100793.09;5010307;28;19914;-66
2022/01/23 15:50:56;;;;;;;;;;;;;;;-0.98;100.00;100797.72;5010703;28;19913;-66
2022/01/23 15:53:22;;;;;;;;;;;;;;;-0.62;100.00;100787.16;5009747;28;19909;-67
2022/01/23 15:55:48;;;;;;;;;;;;;;;-0.82;100.00;100795.69;5010624;28;20712;-67
2022/01/23 15:58:13;;;;;;;;;;;;;;;-0.81;100.00;100808.19;5010195;28;19910;-67
2022/01/23 16:00:38;;;;;;;;;;;;;;;-0.81;100.00;100807.38;5009787;28;20016;-65
2022/01/23 16:03:04;;;;;;;;;;;;;;;-0.84;100.00;100813.13;5010253;28;19928;-67
2022/01/23 16:05:29;;;;;;;;;;;;;;;-0.66;100.00;100822.81;5009954;28;19913;-67
2022/01/23 16:07:54;;;;;;;;;;;;;;;-0.73;100.00;100824.25;5010003;28;19940;-67
2022/01/23 16:10:20;;;;;;;;;;;;;;;-0.80;100.00;100827.38;5010375;28;19913;-64